Time;durP1;ratioP1;P1;durP2;ratioP2;P2;SDS_P1;SDS_P2;PMS_P1;PMS_P2;Temp;Humidity;BMP_temperature;BMP_pressure;BME280_temperature;BME280_humidity;BME280_pressure;Samples;Min_cycle;Max_cycle;Signal;HPM_P1;HPM_P2
2024/02/11 00:00:48;;;;;;;;;;;;;;;18.57;63.59;99958.22;7394351;19;1804;-42
2024/02/11 00:03:25;;;;;;;;;;;;;;;18.66;62.99;99962.66;7393691;19;1552;-42
2024/02/11 00:05:54;;;;;;;;;;;;;;;18.60;62.96;99960.59;7390120;19;1849;-42
2024/02/11 00:08:22;;;;;;;;;;;;;;;18.55;63.18;99957.53;7392662;19;1303;-42
2024/02/11 00:10:51;;;;;;;;;;;;;;;18.57;63.35;99968.94;7393602;19;1674;-42
2024/02/11 00:13:22;;;;;;;;;;;;;;;18.56;63.44;99951.19;7392810;19;1580;-41
2024/02/11 00:15:51;;;;;;;;;;;;;;;18.57;63.42;99915.38;7393752;19;1506;-42
2024/02/11 00:18:21;;;;;;;;;;;;;;;18.55;63.57;99917.38;7392973;19;1576;-41
2024/02/11 00:20:50;;;;;;;;;;;;;;;18.51;63.58;99929.38;7391549;19;1564;-42
2024/02/11 00:23:18;;;;;;;;;;;;;;;18.60;63.57;99923.13;7392408;19;1772;-41
2024/02/11 00:25:46;;;;;;;;;;;;;;;18.48;63.79;99927.00;7390608;19;2463;-41
2024/02/11 00:28:15;;;;;;;;;;;;;;;18.54;63.59;99939.78;7391720;19;1405;-42
2024/02/11 00:30:46;;;;;;;;;;;;;;;18.56;63.26;99940.50;7390524;19;1124;-42
2024/02/11 00:33:14;;;;;;;;;;;;;;;18.56;63.42;99944.97;7391008;19;1831;-42
2024/02/11 00:35:43;;;;;;;;;;;;;;;18.62;63.45;99929.16;7390697;19;1467;-41
2024/02/11 00:38:13;;;;;;;;;;;;;;;18.55;63.26;99938.78;7392178;19;1703;-42
2024/02/11 00:40:41;;;;;;;;;;;;;;;18.59;63.17;99947.38;7392949;19;1030;-42
2024/02/11 00:43:09;;;;;;;;;;;;;;;18.54;63.42;99933.56;7389765;19;1804;-41
2024/02/11 00:45:38;;;;;;;;;;;;;;;18.54;63.56;99931.75;7391467;19;1848;-41
2024/02/11 00:48:10;;;;;;;;;;;;;;;18.46;63.55;99937.00;7391674;19;1790;-42
2024/02/11 00:50:40;;;;;;;;;;;;;;;18.57;63.03;99931.44;7391177;19;1393;-42
2024/02/11 00:53:09;;;;;;;;;;;;;;;18.60;63.20;99924.94;7391836;19;1258;-42
2024/02/11 00:55:37;;;;;;;;;;;;;;;18.54;63.40;99931.75;7391759;19;1572;-42
2024/02/11 00:58:05;;;;;;;;;;;;;;;18.51;63.58;99920.50;7392847;19;1008;-41
2024/02/11 01:00:34;;;;;;;;;;;;;;;18.46;63.62;99911.09;7392655;19;1851;-42
2024/02/11 01:03:04;;;;;;;;;;;;;;;18.43;63.69;99923.94;7390639;19;1914;-42
2024/02/11 01:05:36;;;;;;;;;;;;;;;18.44;63.67;99923.81;7389824;19;1858;-42
2024/02/11 01:08:04;;;;;;;;;;;;;;;18.51;63.35;99929.38;7390677;19;1776;-41
2024/02/11 01:10:33;;;;;;;;;;;;;;;18.45;63.40;99928.16;7390807;19;1497;-42
2024/02/11 01:13:02;;;;;;;;;;;;;;;18.48;63.52;99909.13;7391439;19;1065;-42
2024/02/11 01:15:30;;;;;;;;;;;;;;;18.52;63.41;99917.66;7390942;19;1804;-41
2024/02/11 01:17:59;;;;;;;;;;;;;;;18.37;63.75;99911.19;7391557;19;1275;-42
2024/02/11 01:20:27;;;;;;;;;;;;;;;18.41;63.77;99878.59;7391732;19;1440;-42
2024/02/11 01:22:58;;;;;;;;;;;;;;;18.40;63.78;99863.53;7388186;19;1741;-42
2024/02/11 01:25:26;;;;;;;;;;;;;;;18.44;63.66;99862.25;7390624;19;1873;-41
2024/02/11 01:27:55;;;;;;;;;;;;;;;18.50;63.52;99858.06;7389270;19;1625;-41
2024/02/11 01:30:24;;;;;;;;;;;;;;;18.34;63.73;99863.28;7390720;19;1313;-42
2024/02/11 01:32:54;;;;;;;;;;;;;;;18.08;63.70;99864.03;7390149;19;1549;-42
2024/02/11 01:35:22;;;;;;;;;;;;;;;18.45;63.72;99863.06;7388051;19;1557;-42
2024/02/11 01:37:50;;;;;;;;;;;;;;;18.39;63.76;99858.34;7388988;19;1366;-42
2024/02/11 01:40:21;;;;;;;;;;;;;;;18.41;63.82;99867.88;7391317;19;1095;-42
2024/02/11 01:42:50;;;;;;;;;;;;;;;18.42;63.68;99874.06;7388949;19;1722;-42
2024/02/11 01:45:18;;;;;;;;;;;;;;;18.45;63.59;99871.09;7388991;19;1848;-42
2024/02/11 01:47:47;;;;;;;;;;;;;;;18.34;63.70;99860.63;7389580;19;1740;-42
2024/02/11 01:50:18;;;;;;;;;;;;;;;18.38;63.63;99862.84;7389632;19;1648;-42
2024/02/11 01:52:47;;;;;;;;;;;;;;;18.38;63.54;99862.00;7391061;19;1018;-42
2024/02/11 01:55:17;;;;;;;;;;;;;;;18.45;63.52;99853.19;7390868;19;1061;-42
2024/02/11 01:57:49;;;;;;;;;;;;;;;18.47;63.35;99855.72;7389136;19;1435;-42
2024/02/11 02:00:19;;;;;;;;;;;;;;;18.44;63.40;99856.00;7389406;19;1906;-42
2024/02/11 02:02:48;;;;;;;;;;;;;;;18.44;63.27;99856.88;7389403;19;1914;-42
2024/02/11 02:05:17;;;;;;;;;;;;;;;18.51;63.21;99858.94;7389948;19;1853;-42
2024/02/11 02:07:47;;;;;;;;;;;;;;;18.38;63.62;99862.84;7388598;19;1339;-42
2024/02/11 02:10:16;;;;;;;;;;;;;;;18.26;64.09;99832.81;7389173;19;1342;-42
2024/02/11 02:12:46;;;;;;;;;;;;;;;18.45;63.80;99847.00;7387504;19;1147;-42
2024/02/11 02:15:17;;;;;;;;;;;;;;;18.48;63.63;99854.72;7389318;19;999;-42
2024/02/11 02:17:47;;;;;;;;;;;;;;;18.43;63.84;99846.31;7389290;19;1648;-41
2024/02/11 02:20:16;;;;;;;;;;;;;;;18.32;64.04;99831.31;7388587;19;1650;-42
2024/02/11 02:22:48;;;;;;;;;;;;;;;18.37;63.95;99841.59;7388012;19;1738;-42
2024/02/11 02:25:16;;;;;;;;;;;;;;;18.37;63.74;99838.91;7387220;19;1849;-41
2024/02/11 02:27:44;;;;;;;;;;;;;;;18.33;63.98;99816.13;7387625;19;1647;-41
2024/02/11 02:30:14;;;;;;;;;;;;;;;18.48;63.50;99812.75;7389308;19;1674;-42
2024/02/11 02:32:44;;;;;;;;;;;;;;;18.34;63.72;99794.53;7387832;19;1656;-42
2024/02/11 02:35:21;;;;;;;;;;;;;;;18.42;63.52;99809.81;7388479;19;1299;-42
2024/02/11 02:37:53;;;;;;;;;;;;;;;18.44;63.67;99797.13;7387822;19;1724;-42
2024/02/11 02:40:24;;;;;;;;;;;;;;;18.38;63.50;99801.28;7389673;19;1651;-41
2024/02/11 02:42:52;;;;;;;;;;;;;;;18.38;63.55;99779.00;7385785;19;1835;-42
2024/02/11 02:45:21;;;;;;;;;;;;;;;18.29;63.75;99843.19;7387487;19;1841;-59
2024/02/11 02:47:49;;;;;;;;;;;;;;;18.24;63.83;99810.72;7395034;19;1733;-65
2024/02/11 02:50:18;;;;;;;;;;;;;;;18.32;63.60;99790.34;7396383;19;1512;-57
2024/02/11 02:52:46;;;;;;;;;;;;;;;18.35;63.62;99792.72;7396482;19;1014;-55
2024/02/11 02:55:17;;;;;;;;;;;;;;;18.35;63.53;99806.09;7395487;19;1496;-42
2024/02/11 02:57:46;;;;;;;;;;;;;;;18.28;63.74;99797.84;7395179;19;1766;-42
2024/02/11 03:00:14;;;;;;;;;;;;;;;18.24;63.62;99773.25;7395217;19;1765;-41
2024/02/11 03:02:43;;;;;;;;;;;;;;;18.32;63.48;99767.09;7394799;19;1248;-42
2024/02/11 03:05:11;;;;;;;;;;;;;;;18.32;63.40;99799.19;7395267;19;1783;-42
2024/02/11 03:07:40;;;;;;;;;;;;;;;18.28;63.57;99793.34;7391715;19;1835;-42
2024/02/11 03:10:17;;;;;;;;;;;;;;;17.42;63.31;99664.63;7394563;19;1704;-42
2024/02/11 03:12:48;;;;;;;;;;;;;;;18.29;63.48;99783.47;7394771;19;1172;-42
2024/02/11 03:15:16;;;;;;;;;;;;;;;18.34;63.44;99796.38;7394898;19;1581;-41
2024/02/11 03:17:45;;;;;;;;;;;;;;;18.48;63.11;99793.13;7394810;19;1480;-42
2024/02/11 03:20:14;;;;;;;;;;;;;;;18.42;63.55;99788.41;7391625;19;1376;-42
2024/02/11 03:22:43;;;;;;;;;;;;;;;18.29;63.80;99789.66;7393261;19;1531;-41
2024/02/11 03:25:12;;;;;;;;;;;;;;;18.24;63.84;99783.94;7394951;19;1723;-42
2024/02/11 03:27:41;;;;;;;;;;;;;;;18.32;63.54;99777.78;7390289;19;1900;-42
2024/02/11 03:30:15;;;;;;;;;;;;;;;18.27;63.63;99780.94;7391761;19;1553;-42
2024/02/11 03:32:45;;;;;;;;;;;;;;;18.31;63.24;99786.84;7394552;19;1381;-42
2024/02/11 03:35:13;;;;;;;;;;;;;;;18.40;63.01;99771.66;7394158;19;1720;-42
2024/02/11 03:37:41;;;;;;;;;;;;;;;18.37;63.36;99769.31;7394556;19;1429;-42
2024/02/11 03:40:12;;;;;;;;;;;;;;;18.31;63.33;99769.94;7395861;19;1643;-42
2024/02/11 03:42:40;;;;;;;;;;;;;;;18.19;63.51;99762.16;7391946;19;1832;-41
2024/02/11 03:45:11;;;;;;;;;;;;;;;18.21;63.58;99770.84;7394046;19;1499;-42
2024/02/11 03:47:42;;;;;;;;;;;;;;;18.22;63.39;99753.81;7392282;19;1861;-42
2024/02/11 03:50:13;;;;;;;;;;;;;;;18.31;63.29;99754.72;7395109;19;1462;-41
2024/02/11 03:52:42;;;;;;;;;;;;;;;18.33;63.18;99765.28;7395181;19;998;-41
2024/02/11 03:55:11;;;;;;;;;;;;;;;18.38;62.83;99773.66;7393902;19;1489;-42
2024/02/11 03:57:40;;;;;;;;;;;;;;;18.26;63.05;99767.72;7392504;19;1488;-42
2024/02/11 04:00:25;;;;;;;;;;;;;;;18.12;63.64;99755.72;7392890;19;1509;-42
2024/02/11 04:02:57;;;;;;;;;;;;;;;18.14;64.07;99775.13;7391477;19;2418;-42
2024/02/11 04:05:28;;;;;;;;;;;;;;;18.55;62.86;99750.53;7393254;19;1915;-41
2024/02/11 04:07:56;;;;;;;;;;;;;;;19.03;61.76;99755.34;7391444;19;1870;-41
2024/02/11 04:10:28;;;;;;;;;;;;;;;19.40;60.96;99754.16;7393191;19;1652;-42
2024/02/11 04:12:58;;;;;;;;;;;;;;;19.16;61.24;99770.13;7394202;19;950;-41
2024/02/11 04:15:27;;;;;;;;;;;;;;;18.86;61.92;99743.72;7391986;19;1556;-42
2024/02/11 04:18:07;;;;;;;;;;;;;;;18.76;62.01;99742.97;7393025;19;1714;-42
2024/02/11 04:20:36;;;;;;;;;;;;;;;18.55;62.79;99745.19;7393119;19;1400;-42
2024/02/11 04:23:04;;;;;;;;;;;;;;;18.72;62.63;99741.63;7392548;19;1666;-42
2024/02/11 04:25:34;;;;;;;;;;;;;;;19.04;62.12;99789.19;7392572;19;1684;-42
2024/02/11 04:28:02;;;;;;;;;;;;;;;18.84;62.07;99721.63;7390179;19;1846;-42
2024/02/11 04:30:31;;;;;;;;;;;;;;;18.77;62.18;99755.34;7392303;19;1808;-42
2024/02/11 04:33:04;;;;;;;;;;;;;;;18.73;62.42;99750.47;7393366;19;1131;-42
2024/02/11 04:35:33;;;;;;;;;;;;;;;18.58;62.74;99734.13;7392024;19;1651;-42
2024/02/11 04:38:07;;;;;;;;;;;;;;;18.67;62.59;99727.84;7392343;19;1155;-42
2024/02/11 04:40:36;;;;;;;;;;;;;;;18.90;62.13;99730.84;7393170;19;950;-42
2024/02/11 04:43:04;;;;;;;;;;;;;;;18.81;62.27;99723.78;7390011;19;1194;-42
2024/02/11 04:45:33;;;;;;;;;;;;;;;18.85;62.32;99743.88;7391513;19;1746;-42
2024/02/11 04:48:04;;;;;;;;;;;;;;;18.72;62.30;99730.03;7390934;19;1857;-42
2024/02/11 04:50:34;;;;;;;;;;;;;;;18.56;62.69;99755.75;7392587;19;1658;-42
2024/02/11 04:53:07;;;;;;;;;;;;;;;18.62;62.76;99740.84;7391950;19;1254;-42
2024/02/11 04:55:38;;;;;;;;;;;;;;;18.87;62.52;99734.69;7392076;19;1716;-42
2024/02/11 04:58:11;;;;;;;;;;;;;;;18.87;62.22;99733.84;7392839;19;1825;-42
2024/02/11 05:00:40;;;;;;;;;;;;;;;18.82;62.32;99741.50;7392254;19;1093;-42
2024/02/11 05:03:11;;;;;;;;;;;;;;;18.78;62.15;99716.00;7391880;19;1838;-42
2024/02/11 05:05:41;;;;;;;;;;;;;;;18.58;62.78;99743.03;7391008;19;1937;-42
2024/02/11 05:08:10;;;;;;;;;;;;;;;18.69;62.64;99737.41;7389736;19;1855;-42
2024/02/11 05:10:39;;;;;;;;;;;;;;;18.91;62.29;99734.38;7390827;19;1596;-42
2024/02/11 05:13:08;;;;;;;;;;;;;;;18.96;61.81;99743.63;7390729;19;1568;-42
2024/02/11 05:15:37;;;;;;;;;;;;;;;18.83;62.25;99751.22;7391345;19;1126;-42
2024/02/11 05:18:05;;;;;;;;;;;;;;;18.79;62.45;99747.16;7390579;19;1559;-42
2024/02/11 05:20:36;;;;;;;;;;;;;;;18.62;62.49;99751.56;7391343;19;1459;-42
2024/02/11 05:23:05;;;;;;;;;;;;;;;18.59;62.86;99767.97;7389251;19;1549;-42
2024/02/11 05:25:34;;;;;;;;;;;;;;;18.77;62.66;99762.56;7390690;19;1273;-46
2024/02/11 05:28:04;;;;;;;;;;;;;;;19.14;61.76;99756.06;7388631;19;1861;-41
2024/02/11 05:30:34;;;;;;;;;;;;;;;18.96;61.82;99761.50;7390406;19;1593;-41
2024/02/11 05:33:03;;;;;;;;;;;;;;;18.89;61.88;99758.63;7391022;19;1432;-42
2024/02/11 05:35:34;;;;;;;;;;;;;;;18.78;62.26;99789.19;7391896;19;1045;-42
2024/02/11 05:38:06;;;;;;;;;;;;;;;18.55;62.78;99755.91;7392099;19;1907;-42
2024/02/11 05:40:35;;;;;;;;;;;;;;;18.74;62.54;99770.91;7390265;19;1764;-42
2024/02/11 05:43:03;;;;;;;;;;;;;;;19.01;61.88;99767.22;7388003;19;1251;-42
2024/02/11 05:45:32;;;;;;;;;;;;;;;18.95;62.11;99751.81;7389366;19;1528;-42
2024/02/11 05:48:00;;;;;;;;;;;;;;;18.85;62.27;99747.38;7388411;19;1842;-41
2024/02/11 05:50:29;;;;;;;;;;;;;;;18.80;62.25;99743.50;7390000;19;1384;-42
2024/02/11 05:52:57;;;;;;;;;;;;;;;18.64;62.74;99747.75;7388292;19;1203;-42
2024/02/11 05:55:28;;;;;;;;;;;;;;;18.67;62.77;99750.09;7389002;19;1481;-42
2024/02/11 05:57:59;;;;;;;;;;;;;;;18.89;62.32;99764.00;7389959;19;1108;-41
2024/02/11 06:00:29;;;;;;;;;;;;;;;19.00;61.65;99771.75;7388140;19;1451;-42
2024/02/11 06:02:58;;;;;;;;;;;;;;;18.93;62.01;99757.31;7388732;19;1501;-42
2024/02/11 06:05:27;;;;;;;;;;;;;;;18.87;61.75;99760.63;7387898;19;1230;-41
2024/02/11 06:07:59;;;;;;;;;;;;;;;18.68;62.26;99757.16;7387581;19;1890;-42
2024/02/11 06:10:33;;;;;;;;;;;;;;;18.60;62.43;99772.31;7386367;19;1255;-42
2024/02/11 06:13:01;;;;;;;;;;;;;;;18.83;62.00;99756.59;7389496;19;1455;-41
2024/02/11 06:15:30;;;;;;;;;;;;;;;19.13;61.23;99773.16;7389150;19;1051;-42
2024/02/11 06:18:01;;;;;;;;;;;;;;;18.99;61.49;99770.06;7387973;19;1503;-42
2024/02/11 06:20:29;;;;;;;;;;;;;;;18.92;61.37;99798.50;7388295;19;1436;-41
2024/02/11 06:22:58;;;;;;;;;;;;;;;18.84;61.77;99777.88;7387601;19;1790;-41
2024/02/11 06:25:26;;;;;;;;;;;;;;;18.72;62.02;99778.25;7388178;19;1364;-42
2024/02/11 06:27:57;;;;;;;;;;;;;;;18.79;62.03;99768.59;7386615;19;1852;-42
2024/02/11 06:30:25;;;;;;;;;;;;;;;19.03;61.40;99767.91;7386343;19;1434;-42
2024/02/11 06:32:54;;;;;;;;;;;;;;;18.84;60.16;99766.28;7386369;19;1467;-42
2024/02/11 06:35:23;;;;;;;;;;;;;;;18.78;60.32;99772.25;7387596;19;1468;-42
2024/02/11 06:37:54;;;;;;;;;;;;;;;18.76;60.98;99772.44;7387440;19;1730;-42
2024/02/11 06:40:25;;;;;;;;;;;;;;;18.89;60.47;99769.34;7369882;19;1476;-44
2024/02/11 06:42:53;;;;;;;;;;;;;;;19.32;59.54;99766.69;7387306;19;1584;-44
2024/02/11 06:45:24;;;;;;;;;;;;;;;19.51;59.45;99773.63;7349475;19;1326;-45
2024/02/11 06:47:53;;;;;;;;;;;;;;;19.46;59.58;99760.72;7386186;19;1856;-44
2024/02/11 06:50:21;;;;;;;;;;;;;;;19.20;60.12;99768.81;7387006;19;1773;-45
2024/02/11 06:52:50;;;;;;;;;;;;;;;19.36;59.33;99768.91;7387798;19;1410;-44
2024/02/11 06:55:19;;;;;;;;;;;;;;;19.60;58.48;99764.63;7389141;19;1079;-44
2024/02/11 06:57:47;;;;;;;;;;;;;;;19.61;58.16;99764.44;7387462;19;1213;-44
2024/02/11 07:00:18;;;;;;;;;;;;;;;19.85;57.60;99769.03;7387251;19;1861;-44
2024/02/11 07:02:52;;;;;;;;;;;;;;;19.98;57.54;99748.94;7386110;19;1476;-44
2024/02/11 07:05:21;;;;;;;;;;;;;;;19.98;57.51;99765.06;7387057;19;1386;-50
2024/02/11 07:07:49;;;;;;;;;;;;;;;19.99;57.59;99755.97;7386173;19;1849;-42
2024/02/11 07:10:18;;;;;;;;;;;;;;;20.05;57.53;99760.69;7380157;19;1468;-40
2024/02/11 07:12:46;;;;;;;;;;;;;;;20.00;57.53;99758.50;7383411;19;2326;-33
2024/02/11 07:15:15;;;;;;;;;;;;;;;20.06;57.39;99752.47;7383044;19;1579;-34
2024/02/11 07:17:44;;;;;;;;;;;;;;;20.11;57.56;99748.44;7387078;19;1959;-35
2024/02/11 07:20:15;;;;;;;;;;;;;;;20.10;57.54;99755.66;7387435;19;1579;-44
2024/02/11 07:22:45;;;;;;;;;;;;;;;20.16;57.38;99764.88;7383833;19;1332;-35
2024/02/11 07:25:16;;;;;;;;;;;;;;;20.16;57.72;99779.16;7386887;19;1578;-36
2024/02/11 07:27:44;;;;;;;;;;;;;;;20.15;57.54;99761.34;7384880;19;1880;-36
2024/02/11 07:30:14;;;;;;;;;;;;;;;20.12;57.62;99750.97;7386561;19;1510;-43
2024/02/11 07:32:44;;;;;;;;;;;;;;;20.11;57.90;99764.53;7386919;19;1373;-43
2024/02/11 07:35:16;;;;;;;;;;;;;;;20.08;57.97;99757.66;7394184;19;1185;-44
2024/02/11 07:37:44;;;;;;;;;;;;;;;20.21;57.62;99760.69;7394355;19;1570;-44
2024/02/11 07:40:15;;;;;;;;;;;;;;;20.16;57.64;99757.66;7394928;19;1210;-44
2024/02/11 07:42:45;;;;;;;;;;;;;;;20.15;57.72;99755.97;7394218;19;1326;-44
2024/02/11 07:45:14;;;;;;;;;;;;;;;20.12;57.69;99756.31;7391811;19;1350;-44
2024/02/11 07:47:45;;;;;;;;;;;;;;;20.15;57.70;99764.03;7392046;19;1972;-44
2024/02/11 07:50:17;;;;;;;;;;;;;;;20.12;57.88;99758.19;7390373;19;1900;-44
2024/02/11 07:52:46;;;;;;;;;;;;;;;20.24;57.91;99764.88;7393817;19;1328;-44
2024/02/11 07:55:15;;;;;;;;;;;;;;;20.27;57.85;99764.53;7395246;19;1403;-43
2024/02/11 07:57:43;;;;;;;;;;;;;;;20.23;57.94;99768.56;7393584;19;1492;-45
2024/02/11 08:00:14;;;;;;;;;;;;;;;20.25;57.72;99762.03;7393601;19;1619;-43
2024/02/11 08:02:42;;;;;;;;;;;;;;;20.24;57.88;99776.47;7393586;19;1888;-44
2024/02/11 08:05:12;;;;;;;;;;;;;;;20.33;57.88;99765.72;7393266;19;1560;-35
2024/02/11 08:07:43;;;;;;;;;;;;;;;20.31;57.67;99767.72;7391410;19;1849;-36
2024/02/11 08:10:11;;;;;;;;;;;;;;;20.27;58.05;99778.81;7390633;19;1571;-36
2024/02/11 08:12:40;;;;;;;;;;;;;;;20.20;57.73;99780.47;7389897;19;1358;-36
2024/02/11 08:15:12;;;;;;;;;;;;;;;20.30;57.42;99777.63;7386135;19;1671;-35
2024/02/11 08:17:41;;;;;;;;;;;;;;;20.36;57.49;99778.81;7389721;19;1362;-44
2024/02/11 08:20:12;;;;;;;;;;;;;;;20.37;57.45;99769.75;7391016;19;1384;-44
2024/02/11 08:22:43;;;;;;;;;;;;;;;20.57;56.93;99773.78;7391912;19;1588;-43
2024/02/11 08:25:11;;;;;;;;;;;;;;;20.62;55.98;99770.59;7392398;19;1754;-44
2024/02/11 08:27:40;;;;;;;;;;;;;;;20.65;55.67;99773.78;7391620;19;1852;-36
2024/02/11 08:30:10;;;;;;;;;;;;;;;20.66;54.83;99761.19;7390484;19;1475;-36
2024/02/11 08:32:38;;;;;;;;;;;;;;;20.64;54.95;99753.28;7391015;19;1236;-38
2024/02/11 08:35:08;;;;;;;;;;;;;;;20.53;55.27;99761.69;7351748;19;1576;-39
2024/02/11 08:37:37;;;;;;;;;;;;;;;20.58;55.43;99777.28;7382276;19;1452;-37
2024/02/11 08:40:08;;;;;;;;;;;;;;;20.53;55.32;99763.50;7382855;19;1385;-44
2024/02/11 08:42:37;;;;;;;;;;;;;;;20.61;55.04;99775.13;7386418;19;1152;-45
2024/02/11 08:45:06;;;;;;;;;;;;;;;20.60;55.51;99781.50;7389202;19;1382;-45
2024/02/11 08:47:34;;;;;;;;;;;;;;;20.71;55.57;99784.84;7382557;19;1868;-46
2024/02/11 08:50:04;;;;;;;;;;;;;;;20.73;55.82;99774.75;7385992;19;1135;-45
2024/02/11 08:52:33;;;;;;;;;;;;;;;20.68;55.36;99769.06;7387145;19;1711;-44
2024/02/11 08:55:01;;;;;;;;;;;;;;;20.13;52.41;99774.09;7386912;19;1734;-43
2024/02/11 08:57:32;;;;;;;;;;;;;;;19.79;54.46;99787.66;7384997;19;1271;-42
2024/02/11 09:00:00;;;;;;;;;;;;;;;19.57;55.39;99795.25;7389703;19;1518;-42
2024/02/11 09:02:29;;;;;;;;;;;;;;;19.42;55.93;99791.53;7389206;19;1413;-42
2024/02/11 09:04:58;;;;;;;;;;;;;;;19.31;56.19;99800.69;7390150;19;1133;-43
2024/02/11 09:07:26;;;;;;;;;;;;;;;19.61;55.63;99806.50;7389237;19;1381;-42
2024/02/11 09:09:54;;;;;;;;;;;;;;;19.83;55.28;99795.19;7390343;19;1540;-42
2024/02/11 09:12:23;;;;;;;;;;;;;;;19.65;55.88;99791.78;7390894;19;1598;-34
2024/02/11 09:14:54;;;;;;;;;;;;;;;19.55;56.09;99791.06;7390086;19;1563;-34
2024/02/11 09:17:22;;;;;;;;;;;;;;;19.46;56.02;99807.13;7389993;19;1541;-32
2024/02/11 09:19:52;;;;;;;;;;;;;;;19.36;56.50;99809.13;7388991;19;1235;-34
2024/02/11 09:22:20;;;;;;;;;;;;;;;19.55;56.19;99796.44;7389453;19;1132;-34
2024/02/11 09:24:50;;;;;;;;;;;;;;;19.71;55.81;99796.50;7389636;19;1556;-33
2024/02/11 09:27:18;;;;;;;;;;;;;;;19.47;56.47;99800.75;7390609;19;1550;-34
2024/02/11 09:29:47;;;;;;;;;;;;;;;19.35;56.87;99823.50;7386810;19;2487;-34
2024/02/11 09:32:18;;;;;;;;;;;;;;;19.19;57.12;99818.06;7389723;19;1500;-33
2024/02/11 09:34:47;;;;;;;;;;;;;;;19.45;56.91;99864.44;7382932;19;1504;-35
2024/02/11 09:37:15;;;;;;;;;;;;;;;19.74;56.09;99812.28;7384856;19;1380;-33
2024/02/11 09:39:44;;;;;;;;;;;;;;;19.34;57.27;99805.75;7387161;19;1713;-34
2024/02/11 09:42:16;;;;;;;;;;;;;;;19.17;56.59;99798.63;7384770;19;1441;-37
2024/02/11 09:44:46;;;;;;;;;;;;;;;19.19;56.93;99804.66;7389573;19;1006;-39
2024/02/11 09:47:17;;;;;;;;;;;;;;;19.16;57.30;99791.56;7389638;19;1150;-35
2024/02/11 09:49:51;;;;;;;;;;;;;;;19.06;57.60;99814.00;7388185;19;1857;-40
2024/02/11 09:52:21;;;;;;;;;;;;;;;18.95;58.01;99784.78;7390897;19;1662;-42
2024/02/11 09:54:50;;;;;;;;;;;;;;;19.16;57.87;99786.22;7390832;19;1136;-41
2024/02/11 09:57:19;;;;;;;;;;;;;;;19.07;58.20;99772.78;7385954;19;1762;-41
2024/02/11 09:59:47;;;;;;;;;;;;;;;18.96;58.39;99767.72;7386460;19;1554;-34
2024/02/11 10:02:19;;;;;;;;;;;;;;;18.97;58.24;99772.06;7384176;19;1489;-34
2024/02/11 10:04:53;;;;;;;;;;;;;;;19.02;58.25;99764.41;7384099;19;1305;-43
2024/02/11 10:07:27;;;;;;;;;;;;;;;19.06;57.92;99755.03;7385050;19;1422;-41
2024/02/11 10:09:58;;;;;;;;;;;;;;;18.92;58.58;99776.22;7381742;19;1873;-40
2024/02/11 10:12:26;;;;;;;;;;;;;;;19.09;58.05;99769.94;7387803;19;1061;-40
2024/02/11 10:14:55;;;;;;;;;;;;;;;19.01;58.38;99757.34;7389427;19;1316;-41
2024/02/11 10:17:24;;;;;;;;;;;;;;;18.88;58.77;99779.22;7388684;19;1402;-58
2024/02/11 10:19:55;;;;;;;;;;;;;;;18.81;58.84;99750.56;7387489;19;1741;-40
2024/02/11 10:22:24;;;;;;;;;;;;;;;18.89;58.67;99737.19;7388521;19;1251;-41
2024/02/11 10:24:52;;;;;;;;;;;;;;;18.93;58.43;99748.44;7389305;19;1887;-40
2024/02/11 10:27:24;;;;;;;;;;;;;;;18.92;58.54;99734.22;7388578;19;1836;-40
2024/02/11 10:29:53;;;;;;;;;;;;;;;19.17;58.08;99734.31;7385295;19;1928;-40
2024/02/11 10:32:21;;;;;;;;;;;;;;;18.94;58.63;99734.91;7389660;19;1498;-40
2024/02/11 10:34:49;;;;;;;;;;;;;;;18.84;58.98;99723.44;7387080;19;2416;-40
2024/02/11 10:37:20;;;;;;;;;;;;;;;18.86;58.76;99734.81;7373467;19;1931;-40
2024/02/11 10:39:49;;;;;;;;;;;;;;;18.91;58.56;99719.13;7388441;19;1714;-40
2024/02/11 10:42:18;;;;;;;;;;;;;;;18.78;59.02;99714.19;7389518;19;1144;-35
2024/02/11 10:44:49;;;;;;;;;;;;;;;18.92;58.69;99699.41;7389926;19;1824;-34
2024/02/11 10:47:17;;;;;;;;;;;;;;;19.13;58.23;99700.81;7386634;19;1790;-35
2024/02/11 10:49:46;;;;;;;;;;;;;;;18.89;58.91;99702.38;7387262;19;1894;-34
2024/02/11 10:52:16;;;;;;;;;;;;;;;18.83;59.06;99686.94;7387998;19;1306;-35
2024/02/11 10:54:50;;;;;;;;;;;;;;;18.85;58.96;99685.78;7388593;19;1828;-34
2024/02/11 10:57:22;;;;;;;;;;;;;;;18.80;58.71;99698.84;7388418;19;1653;-34
2024/02/11 10:59:53;;;;;;;;;;;;;;;18.79;59.16;99693.59;7388415;19;1326;-35
2024/02/11 11:02:22;;;;;;;;;;;;;;;19.02;58.61;99701.91;7388364;19;1530;-34
2024/02/11 11:04:51;;;;;;;;;;;;;;;18.89;59.01;99707.72;7387670;19;1433;-35
2024/02/11 11:07:20;;;;;;;;;;;;;;;18.79;59.22;99704.31;7391469;19;1586;-35
2024/02/11 11:09:52;;;;;;;;;;;;;;;18.84;58.70;99696.66;7393565;19;1845;-35
2024/02/11 11:12:20;;;;;;;;;;;;;;;18.83;58.98;99716.41;7395222;19;1827;-43
2024/02/11 11:14:49;;;;;;;;;;;;;;;18.77;59.15;99709.81;7397607;19;1051;-43
2024/02/11 11:17:20;;;;;;;;;;;;;;;18.94;58.81;99696.53;7394503;19;1560;-44
2024/02/11 11:19:52;;;;;;;;;;;;;;;19.07;58.48;99686.22;7394828;19;1824;-41
2024/02/11 11:22:26;;;;;;;;;;;;;;;18.84;58.98;99693.97;7397128;19;1787;-40
2024/02/11 11:24:59;;;;;;;;;;;;;;;18.83;59.14;99681.59;7395763;19;1251;-41
2024/02/11 11:27:27;;;;;;;;;;;;;;;18.82;58.84;99683.44;7395946;19;1835;-40
2024/02/11 11:29:56;;;;;;;;;;;;;;;18.84;58.76;99689.47;7393822;19;1852;-40
2024/02/11 11:32:25;;;;;;;;;;;;;;;18.71;59.33;99688.22;7395573;19;1587;-40
2024/02/11 11:34:54;;;;;;;;;;;;;;;18.99;58.67;99684.34;7397228;19;1017;-40
2024/02/11 11:37:22;;;;;;;;;;;;;;;18.84;59.01;99680.56;7381069;19;1833;-41
2024/02/11 11:39:54;;;;;;;;;;;;;;;18.72;59.14;99677.34;7394409;19;1899;-41
2024/02/11 11:42:25;;;;;;;;;;;;;;;18.83;58.98;99695.00;7391869;19;1833;-40
2024/02/11 11:44:53;;;;;;;;;;;;;;;18.90;58.61;99669.25;7395279;19;1559;-40
2024/02/11 11:47:23;;;;;;;;;;;;;;;18.78;58.95;99660.63;7394773;19;984;-40
2024/02/11 11:49:54;;;;;;;;;;;;;;;18.95;58.89;99666.91;7393267;19;1853;-41
2024/02/11 11:52:22;;;;;;;;;;;;;;;19.05;58.69;99650.69;7394590;19;1477;-40
2024/02/11 11:54:51;;;;;;;;;;;;;;;18.83;58.93;99652.13;7394093;19;1432;-41
2024/02/11 11:57:19;;;;;;;;;;;;;;;18.80;59.30;99641.72;7395136;19;1390;-34
2024/02/11 11:59:57;;;;;;;;;;;;;;;18.92;58.58;99635.09;7392475;19;1489;-32
2024/02/11 12:02:26;;;;;;;;;;;;;;;18.85;58.75;99621.50;7393455;19;1483;-33
2024/02/11 12:04:54;;;;;;;;;;;;;;;18.82;59.16;99639.72;7393085;19;1310;-34
2024/02/11 12:07:23;;;;;;;;;;;;;;;19.14;58.28;99633.66;7393226;19;1772;-35
2024/02/11 12:09:52;;;;;;;;;;;;;;;18.95;58.80;99609.81;7391282;19;1881;-34
2024/02/11 12:12:21;;;;;;;;;;;;;;;18.82;59.19;99613.81;7393199;19;1016;-34
2024/02/11 12:14:52;;;;;;;;;;;;;;;18.94;58.54;99619.69;7392135;19;1840;-34
2024/02/11 12:17:20;;;;;;;;;;;;;;;18.91;58.58;99590.53;7393227;19;1622;-33
2024/02/11 12:19:49;;;;;;;;;;;;;;;18.76;59.18;99602.84;7390261;19;1369;-34
2024/02/11 12:22:17;;;;;;;;;;;;;;;18.94;58.73;99617.03;7394194;19;1828;-43
2024/02/11 12:24:46;;;;;;;;;;;;;;;19.03;58.45;99607.97;7393060;19;1139;-43
2024/02/11 12:27:17;;;;;;;;;;;;;;;18.75;59.19;99607.38;7393416;19;1326;-44
2024/02/11 12:29:54;;;;;;;;;;;;;;;18.78;58.89;99607.06;7392962;19;1851;-43
2024/02/11 12:32:27;;;;;;;;;;;;;;;18.82;58.78;99607.59;7393139;19;1619;-43
2024/02/11 12:34:56;;;;;;;;;;;;;;;18.79;58.86;99597.19;7392615;19;1187;-34
2024/02/11 12:37:25;;;;;;;;;;;;;;;18.79;58.87;99599.84;7379023;19;987;-34
2024/02/11 12:39:54;;;;;;;;;;;;;;;19.03;58.56;99610.66;7392355;19;1627;-44
2024/02/11 12:42:22;;;;;;;;;;;;;;;18.87;58.89;99632.06;7389777;19;1825;-44
2024/02/11 12:44:51;;;;;;;;;;;;;;;18.71;59.24;99621.25;7393209;19;1297;-43
2024/02/11 12:47:19;;;;;;;;;;;;;;;18.81;58.73;99606.75;7393383;19;1046;-35
2024/02/11 12:49:50;;;;;;;;;;;;;;;18.85;58.75;99618.00;7391799;19;1841;-43
2024/02/11 12:52:19;;;;;;;;;;;;;;;18.68;59.11;99612.56;7392551;19;1540;-44
2024/02/11 12:54:47;;;;;;;;;;;;;;;18.95;58.46;99612.50;7391535;19;1561;-43
2024/02/11 12:57:15;;;;;;;;;;;;;;;18.82;58.91;99597.72;7392713;19;1572;-34
2024/02/11 12:59:44;;;;;;;;;;;;;;;18.67;59.42;99613.53;7391941;19;1736;-34
2024/02/11 13:02:12;;;;;;;;;;;;;;;18.81;58.89;99600.56;7391256;19;1541;-35
2024/02/11 13:04:41;;;;;;;;;;;;;;;18.88;58.36;99606.97;7393352;19;1579;-35
2024/02/11 13:07:12;;;;;;;;;;;;;;;18.73;59.15;99598.66;7391460;19;1461;-34
2024/02/11 13:09:40;;;;;;;;;;;;;;;18.90;58.81;99596.91;7390240;19;1841;-34